WXM80 ListenWXM80 Stop

You find our weather info also at:

UK Metoffice

WeatherCloud

Weather Underground

Northeastern Weather Network

AWEKAS

Citizen Weather Observer Program (CWOP)

HAMweather, WeatherForYou, PWS Weather


Weather Underground History page Text

Daily Summary for May 20, 2018 Units:  Both    English   Metric
« Previous Day
Next Day »
Daily Weekly Monthly Yearly Custom
  Current: High: Low: Average:
Temperature: 65.6 °F /  18.7 °C 86.1 °F /  30.1 °C 52.9 °F /  11.6 °C 69.6 °F /  20.9 °C
Dew Point: 57.8 °F /  14.3 °C 74.2 °F /  23.4 °C 52.4 °F /  11.3 °C 64.1 °F /  17.8 °C
Humidity: 76 % 99 % 58 % 84 %
Wind Speed: 1.1 mph /  1.8 km/h 7.6 mph /  12.2 km/h - 1.5 mph /  2.4 km/h
Wind Gust: 3.0 mph /  4.8 km/h 15.0 mph /  24.1 km/h - -
Wind:NNW - - WSW
Pressure: 26.33 in /  891.5 hPa 30.67 in /  1038.5 hPa 21.03 in /  712.1 hPa -
Precipitation: 0.14 in /  3.56 mm      
Historical Graphs
 
 
Tabular Data for May 20, 2018
Time Temperature Dew Point Pressure Wind Wind Speed Wind Gust Humidity Rainfall Rate (Hourly)
00:00 53.0 °F /  11.7 °C 52.5 °F /  11.4 °C 29.70 in /  1005.6 hPa Calm     98 % 0.00 in /  0 mm
00:05 53.1 °F /  11.7 °C 52.6 °F /  11.4 °C 29.70 in /  1005.6 hPa Calm     98 % 0.00 in /  0 mm
00:10 53.1 °F /  11.7 °C 52.6 °F /  11.4 °C 29.70 in /  1005.6 hPa Calm     98 % 0.00 in /  0 mm
00:15 53.1 °F /  11.7 °C 52.6 °F /  11.4 °C 29.70 in /  1005.6 hPa Calm     98 % 0.01 in /  0.25 mm
00:20 53.1 °F /  11.7 °C 52.6 °F /  11.4 °C 29.70 in /  1005.6 hPa Calm     98 % 0.01 in /  0.25 mm
00:25 53.0 °F /  11.7 °C 52.5 °F /  11.4 °C 29.69 in /  1005.3 hPa Calm     98 % 0.01 in /  0.25 mm
00:30 53.0 °F /  11.7 °C 52.5 °F /  11.4 °C 29.69 in /  1005.3 hPa Calm     98 % 0.01 in /  0.25 mm
00:35 53.0 °F /  11.7 °C 52.5 °F /  11.4 °C 29.69 in /  1005.3 hPa Calm     98 % 0.01 in /  0.25 mm
00:40 53.0 °F /  11.7 °C 52.5 °F /  11.4 °C 29.69 in /  1005.3 hPa Calm     98 % 0.01 in /  0.25 mm
00:45 52.9 °F /  11.6 °C 52.4 °F /  11.3 °C 29.68 in /  1005 hPa Calm     98 % 0.01 in /  0.25 mm
00:50 52.9 °F /  11.6 °C 52.4 °F /  11.3 °C 29.67 in /  1004.6 hPa Calm     98 % 0.01 in /  0.25 mm
00:55 52.9 °F /  11.6 °C 52.4 °F /  11.3 °C 29.66 in /  1004.3 hPa Calm     98 % 0.01 in /  0.25 mm
01:00 53.0 °F /  11.7 °C 52.5 °F /  11.4 °C 29.66 in /  1004.3 hPa Calm     98 % 0.01 in /  0.25 mm
01:05 52.9 °F /  11.6 °C 52.4 °F /  11.3 °C 29.65 in /  1003.9 hPa Calm     98 % 0.01 in /  0.25 mm
01:10 52.9 °F /  11.6 °C 52.4 °F /  11.3 °C 29.64 in /  1003.6 hPa Calm     98 % 0.01 in /  0.25 mm
01:15 53.0 °F /  11.7 °C 52.5 °F /  11.4 °C 29.62 in /  1002.9 hPa Calm     98 % 0.00 in /  0 mm
01:20 53.0 °F /  11.7 °C 52.5 °F /  11.4 °C 29.60 in /  1002.3 hPa Calm     98 % 0.00 in /  0 mm
01:26 53.0 °F /  11.7 °C 52.5 °F /  11.4 °C 29.60 in /  1002.3 hPa Calm     98 % 0.00 in /  0 mm
01:31 53.0 °F /  11.7 °C 52.5 °F /  11.4 °C 29.60 in /  1002.3 hPa Calm     98 % 0.00 in /  0 mm
01:36 53.0 °F /  11.7 °C 52.5 °F /  11.4 °C 29.02 in /  982.6 hPa Calm     98 % 0.00 in /  0 mm
01:41 53.0 °F /  11.7 °C 52.5 °F /  11.4 °C 28.71 in /  972.1 hPa Calm     98 % 0.00 in /  0 mm
01:46 53.1 °F /  11.7 °C 52.5 °F /  11.4 °C 26.98 in /  913.5 hPa Calm     98 % 0.00 in /  0 mm
01:51 53.1 °F /  11.7 °C 52.6 °F /  11.4 °C 28.36 in /  960.3 hPa Calm     98 % 0.00 in /  0 mm
01:56 53.1 °F /  11.7 °C 52.6 °F /  11.4 °C 28.44 in /  963 hPa Calm     98 % 0.00 in /  0 mm
02:00 53.1 °F /  11.7 °C 52.6 °F /  11.4 °C 27.94 in /  946 hPa Calm     98 % 0.00 in /  0 mm
02:06 53.2 °F /  11.8 °C 52.7 °F /  11.5 °C 27.94 in /  946 hPa Calm     98 % 0.00 in /  0 mm
02:11 53.2 °F /  11.8 °C 52.7 °F /  11.5 °C 27.94 in /  946 hPa Calm     98 % 0.00 in /  0 mm
02:16 53.2 °F /  11.8 °C 52.7 °F /  11.5 °C 27.94 in /  946 hPa Calm     98 % 0.00 in /  0 mm
02:20 53.2 °F /  11.8 °C 52.7 °F /  11.5 °C 27.94 in /  946 hPa Calm     98 % 0.01 in /  0.25 mm
02:26 53.3 °F /  11.8 °C 52.8 °F /  11.6 °C 28.22 in /  955.5 hPa Calm     98 % 0.00 in /  0 mm
02:30 53.3 °F /  11.8 °C 52.7 °F /  11.5 °C 28.22 in /  955.5 hPa Calm     98 % 0.00 in /  0 mm
02:35 53.3 °F /  11.8 °C 52.8 °F /  11.6 °C 28.22 in /  955.5 hPa Calm     98 % 0.00 in /  0 mm
02:41 53.3 °F /  11.8 °C 52.8 °F /  11.6 °C 28.22 in /  955.5 hPa Calm     98 % 0.01 in /  0.25 mm
02:45 53.3 °F /  11.8 °C 52.8 °F /  11.6 °C 28.22 in /  955.5 hPa Calm     98 % 0.00 in /  0 mm
02:51 53.4 °F /  11.9 °C 52.8 °F /  11.6 °C 27.51 in /  931.5 hPa Calm     98 % 0.00 in /  0 mm
02:55 53.5 °F /  11.9 °C 53.0 °F /  11.7 °C 27.51 in /  931.5 hPa ENE 1.0 mph /  1.6 km/h 3.0 mph /  4.8 km/h 98 % 0.00 in /  0 mm
03:01 54.1 °F /  12.3 °C 53.5 °F /  11.9 °C 27.51 in /  931.5 hPa SSW 1.0 mph /  1.6 km/h 3.5 mph /  5.6 km/h 98 % 0.01 in /  0.25 mm
03:06 54.9 °F /  12.7 °C 54.6 °F /  12.6 °C 25.49 in /  863.1 hPa Calm   3.0 mph /  4.8 km/h 99 % 0.00 in /  0 mm
03:11 56.1 °F /  13.4 °C 55.8 °F /  13.2 °C 25.03 in /  847.5 hPa SW 3.0 mph /  4.8 km/h 10.0 mph /  16.1 km/h 99 % 0.00 in /  0 mm
03:15 57.3 °F /  14.1 °C 57.0 °F /  13.9 °C 24.82 in /  840.4 hPa SW 1.0 mph /  1.6 km/h 5.0 mph /  8 km/h 99 % 0.00 in /  0 mm
03:19 58.4 °F /  14.7 °C 58.1 °F /  14.5 °C 24.82 in /  840.4 hPa SW 0.6 mph /  1 km/h 8.1 mph /  13 km/h 99 % 0.00 in /  0 mm
03:24 59.3 °F /  15.2 °C 59.0 °F /  15 °C 23.98 in /  812 hPa SSW 3.3 mph /  5.3 km/h 9.2 mph /  14.8 km/h 99 % 0.00 in /  0 mm
03:29 60.2 °F /  15.7 °C 59.9 °F /  15.5 °C 23.68 in /  801.8 hPa SW 2.8 mph /  4.5 km/h 5.8 mph /  9.3 km/h 99 % 0.00 in /  0 mm
03:34 61.0 °F /  16.1 °C 60.7 °F /  15.9 °C 23.48 in /  795 hPa Calm   4.6 mph /  7.4 km/h 99 % 0.00 in /  0 mm
03:39 61.6 °F /  16.4 °C 61.3 °F /  16.3 °C 22.93 in /  776.4 hPa WSW 0.5 mph /  0.8 km/h 3.5 mph /  5.6 km/h 99 % 0.00 in /  0 mm
03:44 62.0 °F /  16.7 °C 61.7 °F /  16.5 °C 21.03 in /  712.1 hPa South 0.6 mph /  1 km/h 5.8 mph /  9.3 km/h 99 % 0.00 in /  0 mm
03:49 62.2 °F /  16.8 °C 61.9 °F /  16.6 °C 23.68 in /  801.8 hPa SW 3.7 mph /  6 km/h 6.9 mph /  11.1 km/h 99 % 0.00 in /  0 mm
03:50 62.2 °F /  16.8 °C 61.9 °F /  16.6 °C 23.68 in /  801.8 hPa SW 3.7 mph /  6 km/h 6.9 mph /  11.1 km/h 99 % 0.00 in /  0 mm
03:55 62.2 °F /  16.8 °C 61.9 °F /  16.6 °C 23.68 in /  801.8 hPa SW 3.7 mph /  6 km/h 6.9 mph /  11.1 km/h 99 % 0.00 in /  0 mm
04:00 62.6 °F /  17 °C 62.3 °F /  16.8 °C 28.30 in /  958.2 hPa SW 0.9 mph /  1.4 km/h 6.9 mph /  11.1 km/h 99 % 0.00 in /  0 mm
04:05 62.6 °F /  17 °C 62.3 °F /  16.8 °C 28.13 in /  952.5 hPa SW 0.5 mph /  0.8 km/h 3.5 mph /  5.6 km/h 99 % 0.00 in /  0 mm
04:10 62.7 °F /  17.1 °C 62.4 °F /  16.9 °C 28.13 in /  952.5 hPa South 1.9 mph /  3.1 km/h 4.6 mph /  7.4 km/h 99 % 0.00 in /  0 mm
04:15 62.8 °F /  17.1 °C 62.5 °F /  16.9 °C 28.13 in /  952.5 hPa Calm   3.5 mph /  5.6 km/h 99 % 0.00 in /  0 mm
04:20 62.8 °F /  17.1 °C 62.5 °F /  16.9 °C 27.82 in /  942 hPa SSW 0.2 mph /  0.3 km/h 2.3 mph /  3.7 km/h 99 % 0.00 in /  0 mm
04:25 62.8 °F /  17.1 °C 62.5 °F /  16.9 °C 27.48 in /  930.5 hPa West 0.5 mph /  0.8 km/h 3.5 mph /  5.6 km/h 99 % 0.01 in /  0.25 mm
04:30 62.8 °F /  17.1 °C 62.5 °F /  16.9 °C 27.48 in /  930.5 hPa SSW 3.3 mph /  5.3 km/h 5.8 mph /  9.3 km/h 99 % 0.01 in /  0.25 mm
04:35 62.7 °F /  17.1 °C 62.4 °F /  16.9 °C 27.21 in /  921.3 hPa SSW 0.8 mph /  1.3 km/h 4.0 mph /  6.4 km/h 99 % 0.01 in /  0.25 mm
04:40 62.6 °F /  17 °C 62.3 °F /  16.8 °C 27.03 in /  915.2 hPa Calm     99 % 0.01 in /  0.25 mm
04:45 62.6 °F /  17 °C 62.3 °F /  16.8 °C 27.03 in /  915.2 hPa WSW 4.0 mph /  6.4 km/h 6.9 mph /  11.1 km/h 99 % 0.01 in /  0.25 mm
04:50 62.5 °F /  16.9 °C 62.2 °F /  16.8 °C 27.03 in /  915.2 hPa WSW 0.1 mph /  0.2 km/h 1.2 mph /  1.9 km/h 99 % 0.01 in /  0.25 mm
04:55 62.5 °F /  16.9 °C 62.2 °F /  16.8 °C 23.04 in /  780.1 hPa WSW 0.3 mph /  0.5 km/h 2.3 mph /  3.7 km/h 99 % 0.01 in /  0.25 mm
05:00 62.5 °F /  16.9 °C 62.2 °F /  16.8 °C 22.66 in /  767.3 hPa SW 1.2 mph /  1.9 km/h 4.0 mph /  6.4 km/h 99 % 0.01 in /  0.25 mm
05:05 62.5 °F /  16.9 °C 62.2 °F /  16.8 °C 22.03 in /  745.9 hPa WSW 3.1 mph /  5 km/h 3.1 mph /  5 km/h 99 % 0.01 in /  0.25 mm
05:10 62.6 °F /  17 °C 62.3 °F /  16.8 °C 21.84 in /  739.5 hPa Calm     99 % 0.01 in /  0.25 mm
05:15 62.7 °F /  17.1 °C 62.4 °F /  16.9 °C 21.60 in /  731.4 hPa WSW 0.6 mph /  1 km/h 4.0 mph /  6.4 km/h 99 % 0.01 in /  0.25 mm
05:20 62.7 °F /  17.1 °C 62.4 °F /  16.9 °C 24.01 in /  813 hPa Calm     99 % 0.01 in /  0.25 mm
05:25 62.7 °F /  17.1 °C 62.4 °F /  16.9 °C 24.01 in /  813 hPa Calm     99 % 0.01 in /  0.25 mm
05:30 62.9 °F /  17.2 °C 62.6 °F /  17 °C 28.23 in /  955.9 hPa SW 1.0 mph /  1.6 km/h 3.0 mph /  4.8 km/h 99 % 0.00 in /  0 mm
05:35 63.0 °F /  17.2 °C 62.7 °F /  17.1 °C 28.36 in /  960.3 hPa Calm   5.0 mph /  8 km/h 99 % 0.00 in /  0 mm
05:40 63.1 °F /  17.3 °C 62.8 °F /  17.1 °C 28.36 in /  960.3 hPa SW 1.0 mph /  1.6 km/h 5.0 mph /  8 km/h 99 % 0.00 in /  0 mm
05:45 63.3 °F /  17.4 °C 63.0 °F /  17.2 °C 28.14 in /  952.8 hPa WSW 2.8 mph /  4.5 km/h 3.5 mph /  5.6 km/h 99 % 0.00 in /  0 mm
05:50 63.4 °F /  17.4 °C 63.1 °F /  17.3 °C 27.41 in /  928.1 hPa SW 2.0 mph /  3.2 km/h 5.0 mph /  8 km/h 99 % 0.00 in /  0 mm
05:55 63.6 °F /  17.6 °C 63.3 °F /  17.4 °C 26.44 in /  895.3 hPa Calm   7.0 mph /  11.3 km/h 99 % 0.00 in /  0 mm
06:01 63.8 °F /  17.7 °C 63.5 °F /  17.5 °C 24.22 in /  820.1 hPa WSW 2.4 mph /  3.9 km/h 5.8 mph /  9.3 km/h 99 % 0.00 in /  0 mm
06:06 63.9 °F /  17.7 °C 63.6 °F /  17.6 °C 23.71 in /  802.8 hPa SW 3.1 mph /  5 km/h 6.9 mph /  11.1 km/h 99 % 0.00 in /  0 mm
06:11 64.1 °F /  17.8 °C 63.8 °F /  17.7 °C 23.71 in /  802.8 hPa SW 1.6 mph /  2.6 km/h 4.0 mph /  6.4 km/h 99 % 0.00 in /  0 mm
06:16 64.2 °F /  17.9 °C 63.9 °F /  17.7 °C 23.71 in /  802.8 hPa SW 0.3 mph /  0.5 km/h 3.5 mph /  5.6 km/h 99 % 0.00 in /  0 mm
06:21 64.2 °F /  17.9 °C 63.9 °F /  17.7 °C 23.71 in /  802.8 hPa SW 0.5 mph /  0.8 km/h 2.3 mph /  3.7 km/h 99 % 0.00 in /  0 mm
06:26 64.2 °F /  17.9 °C 63.9 °F /  17.7 °C 23.71 in /  802.8 hPa SW 1.9 mph /  3.1 km/h 4.6 mph /  7.4 km/h 99 % 0.01 in /  0.25 mm
06:31 64.1 °F /  17.8 °C 63.8 °F /  17.7 °C 28.62 in /  969.1 hPa Calm     99 % 0.01 in /  0.25 mm
06:36 64.0 °F /  17.8 °C 63.7 °F /  17.6 °C 28.42 in /  962.3 hPa Calm   3.5 mph /  5.6 km/h 99 % 0.01 in /  0.25 mm
06:41 64.0 °F /  17.8 °C 63.7 °F /  17.6 °C 28.40 in /  961.6 hPa Calm   2.0 mph /  3.2 km/h 99 % 0.01 in /  0.25 mm
06:46 63.9 °F /  17.7 °C 63.6 °F /  17.6 °C 28.40 in /  961.6 hPa Calm     99 % 0.01 in /  0.25 mm
06:51 63.8 °F /  17.7 °C 63.5 °F /  17.5 °C 27.72 in /  938.6 hPa Calm     99 % 0.01 in /  0.25 mm
06:56 63.9 °F /  17.7 °C 63.6 °F /  17.6 °C 27.72 in /  938.6 hPa Calm     99 % 0.01 in /  0.25 mm
07:01 63.9 °F /  17.7 °C 63.6 °F /  17.6 °C 27.72 in /  938.6 hPa Calm     99 % 0.01 in /  0.25 mm
07:06 63.9 °F /  17.7 °C 63.6 °F /  17.6 °C 27.72 in /  938.6 hPa Calm     99 % 0.01 in /  0.25 mm
07:11 64.0 °F /  17.8 °C 63.7 °F /  17.6 °C 26.65 in /  902.4 hPa SW 0.1 mph /  0.2 km/h 1.2 mph /  1.9 km/h 99 % 0.01 in /  0.25 mm
07:16 64.2 °F /  17.9 °C 63.9 °F /  17.7 °C 25.60 in /  866.8 hPa SW 1.9 mph /  3.1 km/h 4.0 mph /  6.4 km/h 99 % 0.01 in /  0.25 mm
07:21 64.3 °F /  17.9 °C 64.0 °F /  17.8 °C 27.66 in /  936.6 hPa Calm     99 % 0.01 in /  0.25 mm
07:26 64.4 °F /  18 °C 64.1 °F /  17.8 °C 27.48 in /  930.5 hPa Calm     99 % 0.00 in /  0 mm
07:31 64.5 °F /  18.1 °C 64.2 °F /  17.9 °C 26.49 in /  897 hPa Calm   3.5 mph /  5.6 km/h 99 % 0.00 in /  0 mm
07:36 64.5 °F /  18.1 °C 64.2 °F /  17.9 °C 26.49 in /  897 hPa Calm     99 % 0.00 in /  0 mm
07:41 64.6 °F /  18.1 °C 64.3 °F /  17.9 °C 25.55 in /  865.1 hPa Calm     99 % 0.00 in /  0 mm
07:46 64.7 °F /  18.2 °C 64.4 °F /  18 °C 27.94 in /  946 hPa Calm     99 % 0.00 in /  0 mm
07:51 64.8 °F /  18.2 °C 64.5 °F /  18.1 °C 27.94 in /  946 hPa Calm     99 % 0.00 in /  0 mm
07:57 64.9 °F /  18.3 °C 64.6 °F /  18.1 °C 27.94 in /  946 hPa Calm     99 % 0.00 in /  0 mm
08:02 65.0 °F /  18.3 °C 64.7 °F /  18.2 °C 27.96 in /  946.7 hPa SW 0.3 mph /  0.5 km/h 2.3 mph /  3.7 km/h 99 % 0.00 in /  0 mm
08:07 65.1 °F /  18.4 °C 64.8 °F /  18.2 °C 27.91 in /  945 hPa SSE 0.3 mph /  0.5 km/h 3.5 mph /  5.6 km/h 99 % 0.00 in /  0 mm
08:12 65.2 °F /  18.4 °C 64.9 °F /  18.3 °C 27.87 in /  943.7 hPa Calm   3.5 mph /  5.6 km/h 99 % 0.00 in /  0 mm
08:17 65.3 °F /  18.5 °C 65.0 °F /  18.3 °C 27.72 in /  938.6 hPa SSW 1.3 mph /  2.1 km/h 4.6 mph /  7.4 km/h 99 % 0.00 in /  0 mm
08:22 65.5 °F /  18.6 °C 65.2 °F /  18.4 °C 27.72 in /  938.6 hPa SW 0.8 mph /  1.3 km/h 4.6 mph /  7.4 km/h 99 % 0.01 in /  0.25 mm
08:27 65.6 °F /  18.7 °C 65.3 °F /  18.5 °C 28.24 in /  956.2 hPa SSW 0.7 mph /  1.1 km/h 3.5 mph /  5.6 km/h 99 % 0.01 in /  0.25 mm
08:32 65.8 °F /  18.8 °C 65.5 °F /  18.6 °C 28.24 in /  956.2 hPa Calm     99 % 0.01 in /  0.25 mm
08:37 65.9 °F /  18.8 °C 65.6 °F /  18.7 °C 28.26 in /  956.9 hPa SSW 0.9 mph /  1.4 km/h 6.0 mph /  9.7 km/h 99 % 0.01 in /  0.25 mm
08:42 66.1 °F /  18.9 °C 65.8 °F /  18.8 °C 28.26 in /  956.9 hPa SSW 0.7 mph /  1.1 km/h 3.0 mph /  4.8 km/h 99 % 0.01 in /  0.25 mm
08:47 66.4 °F /  19.1 °C 66.1 °F /  18.9 °C 28.26 in /  956.9 hPa SW 1.5 mph /  2.4 km/h 6.0 mph /  9.7 km/h 99 % 0.01 in /  0.25 mm
08:52 66.7 °F /  19.3 °C 66.4 °F /  19.1 °C 27.76 in /  940 hPa SW 2.6 mph /  4.2 km/h 5.8 mph /  9.3 km/h 99 % 0.01 in /  0.25 mm
08:57 66.9 °F /  19.4 °C 66.6 °F /  19.2 °C 27.76 in /  940 hPa Calm     99 % 0.01 in /  0.25 mm
09:02 67.2 °F /  19.6 °C 66.9 °F /  19.4 °C 27.76 in /  940 hPa SW 1.6 mph /  2.6 km/h 3.5 mph /  5.6 km/h 99 % 0.01 in /  0.25 mm
09:07 67.5 °F /  19.7 °C 67.2 °F /  19.6 °C 27.76 in /  940 hPa Calm   2.3 mph /  3.7 km/h 99 % 0.01 in /  0.25 mm
09:12 67.9 °F /  19.9 °C 67.6 °F /  19.8 °C 28.07 in /  950.5 hPa SSW 1.2 mph /  1.9 km/h 2.3 mph /  3.7 km/h 99 % 0.01 in /  0.25 mm
09:17 68.4 °F /  20.2 °C 68.1 °F /  20.1 °C 27.57 in /  933.5 hPa SSW 0.9 mph /  1.4 km/h 6.9 mph /  11.1 km/h 99 % 0.01 in /  0.25 mm
09:22 68.7 °F /  20.4 °C 68.4 °F /  20.2 °C 27.47 in /  930.1 hPa SW 2.4 mph /  3.9 km/h 3.5 mph /  5.6 km/h 99 % 0.00 in /  0 mm
09:27 69.0 °F /  20.6 °C 68.7 °F /  20.4 °C 27.34 in /  925.7 hPa SW 6.7 mph /  10.8 km/h 6.9 mph /  11.1 km/h 99 % 0.00 in /  0 mm
09:32 69.2 °F /  20.7 °C 68.9 °F /  20.5 °C 27.34 in /  925.7 hPa SW 4.6 mph /  7.4 km/h 7.0 mph /  11.3 km/h 99 % 0.00 in /  0 mm
09:37 69.5 °F /  20.8 °C 69.2 °F /  20.7 °C 27.34 in /  925.7 hPa SSW 4.3 mph /  6.9 km/h 9.2 mph /  14.8 km/h 99 % 0.00 in /  0 mm
09:42 70.0 °F /  21.1 °C 69.7 °F /  20.9 °C 27.34 in /  925.7 hPa SSW 4.7 mph /  7.6 km/h 8.1 mph /  13 km/h 99 % 0.00 in /  0 mm
09:47 70.4 °F /  21.3 °C 70.1 °F /  21.2 °C 27.34 in /  925.7 hPa SW 6.1 mph /  9.8 km/h 7.0 mph /  11.3 km/h 99 % 0.00 in /  0 mm
09:52 70.6 °F /  21.4 °C 70.3 °F /  21.3 °C 27.34 in /  925.7 hPa SSW 2.0 mph /  3.2 km/h 5.8 mph /  9.3 km/h 99 % 0.00 in /  0 mm
09:57 70.9 °F /  21.6 °C 70.6 °F /  21.4 °C 28.32 in /  958.9 hPa West 3.4 mph /  5.5 km/h 11.5 mph /  18.5 km/h 99 % 0.00 in /  0 mm
10:03 71.2 °F /  21.8 °C 70.9 °F /  21.6 °C 28.17 in /  953.8 hPa SW 4.3 mph /  6.9 km/h 8.1 mph /  13 km/h 99 % 0.00 in /  0 mm
10:08 71.2 °F /  21.8 °C 70.9 °F /  21.6 °C 28.17 in /  953.8 hPa WSW 0.7 mph /  1.1 km/h 9.2 mph /  14.8 km/h 99 % 0.00 in /  0 mm
10:13 71.3 °F /  21.8 °C 71.0 °F /  21.7 °C 27.10 in /  917.6 hPa WSW 5.3 mph /  8.5 km/h 7.0 mph /  11.3 km/h 99 % 0.01 in /  0.25 mm
10:18 71.5 °F /  21.9 °C 71.2 °F /  21.8 °C 27.10 in /  917.6 hPa SSW 3.6 mph /  5.8 km/h 9.2 mph /  14.8 km/h 99 % 0.01 in /  0.25 mm
10:23 71.7 °F /  22.1 °C 71.4 °F /  21.9 °C 27.10 in /  917.6 hPa South 5.2 mph /  8.4 km/h 9.2 mph /  14.8 km/h 99 % 0.01 in /  0.25 mm
10:28 72.2 °F /  22.3 °C 71.9 °F /  22.2 °C 27.10 in /  917.6 hPa WSW 3.4 mph /  5.5 km/h 9.2 mph /  14.8 km/h 99 % 0.01 in /  0.25 mm
10:33 72.5 °F /  22.5 °C 72.2 °F /  22.3 °C 30.67 in /  1038.5 hPa SW 3.4 mph /  5.5 km/h 8.1 mph /  13 km/h 99 % 0.01 in /  0.25 mm
10:38 72.9 °F /  22.7 °C 72.6 °F /  22.6 °C 30.67 in /  1038.5 hPa WSW 1.2 mph /  1.9 km/h 3.5 mph /  5.6 km/h 99 % 0.01 in /  0.25 mm
10:43 73.4 °F /  23 °C 72.8 °F /  22.7 °C 30.67 in /  1038.5 hPa South 3.0 mph /  4.8 km/h 7.0 mph /  11.3 km/h 98 % 0.01 in /  0.25 mm
10:48 74.2 °F /  23.4 °C 73.6 °F /  23.1 °C 30.67 in /  1038.5 hPa SSW 3.2 mph /  5.1 km/h 9.2 mph /  14.8 km/h 98 % 0.01 in /  0.25 mm
10:49 74.2 °F /  23.4 °C 73.6 °F /  23.1 °C 30.67 in /  1038.5 hPa SSW 3.2 mph /  5.1 km/h 9.2 mph /  14.8 km/h 98 % 0.01 in /  0.25 mm
10:53 74.2 °F /  23.4 °C 73.6 °F /  23.1 °C 30.67 in /  1038.5 hPa SSW 3.2 mph /  5.1 km/h 9.2 mph /  14.8 km/h 98 % 0.01 in /  0.25 mm
10:58 74.2 °F /  23.4 °C 73.6 °F /  23.1 °C 30.67 in /  1038.5 hPa SSW 3.2 mph /  5.1 km/h 9.2 mph /  14.8 km/h 98 % 0.01 in /  0.25 mm
11:55 81.3 °F /  27.4 °C 73.4 °F /  23 °C 28.63 in /  969.4 hPa WNW 0.4 mph /  0.6 km/h 7.0 mph /  11.3 km/h 77 % 0.01 in /  0.25 mm
12:00 81.6 °F /  27.6 °C 73.7 °F /  23.2 °C 28.54 in /  966.4 hPa WSW 2.0 mph /  3.2 km/h 9.2 mph /  14.8 km/h 77 % 0.02 in /  0.51 mm
12:05 81.9 °F /  27.7 °C 73.6 °F /  23.1 °C 27.84 in /  942.7 hPa WSW 3.9 mph /  6.3 km/h 10.4 mph /  16.7 km/h 76 % 0.02 in /  0.51 mm
12:10 82.1 °F /  27.8 °C 74.2 °F /  23.4 °C 27.35 in /  926.1 hPa SW 2.9 mph /  4.7 km/h 6.9 mph /  11.1 km/h 77 % 0.02 in /  0.51 mm
12:15 82.3 °F /  27.9 °C 73.2 °F /  22.9 °C 28.41 in /  962 hPa WSW 2.5 mph /  4 km/h 8.0 mph /  12.9 km/h 74 % 0.02 in /  0.51 mm
12:20 82.5 °F /  28.1 °C 73.0 °F /  22.8 °C 28.32 in /  958.9 hPa West 5.3 mph /  8.5 km/h 10.4 mph /  16.7 km/h 73 % 0.01 in /  0.25 mm
12:25 82.6 °F /  28.1 °C 72.7 °F /  22.6 °C 28.26 in /  956.9 hPa SW 2.5 mph /  4 km/h 9.2 mph /  14.8 km/h 72 % 0.01 in /  0.25 mm
12:30 83.0 °F /  28.3 °C 72.2 °F /  22.3 °C 28.36 in /  960.3 hPa WSW 3.4 mph /  5.5 km/h 10.4 mph /  16.7 km/h 70 % 0.01 in /  0.25 mm
12:35 83.4 °F /  28.6 °C 73.0 °F /  22.8 °C 28.14 in /  952.8 hPa West 2.1 mph /  3.4 km/h 10.4 mph /  16.7 km/h 71 % 0.01 in /  0.25 mm
12:40 83.6 °F /  28.7 °C 71.9 °F /  22.2 °C 27.69 in /  937.6 hPa WSW 5.5 mph /  8.9 km/h 10.4 mph /  16.7 km/h 68 % 0.01 in /  0.25 mm
12:45 83.6 °F /  28.7 °C 71.9 °F /  22.2 °C 28.38 in /  960.9 hPa West 0.8 mph /  1.3 km/h 3.0 mph /  4.8 km/h 68 % 0.01 in /  0.25 mm
12:50 83.5 °F /  28.6 °C 71.4 °F /  21.9 °C 28.38 in /  960.9 hPa WSW 5.3 mph /  8.5 km/h 11.5 mph /  18.5 km/h 67 % 0.01 in /  0.25 mm
12:55 83.5 °F /  28.6 °C 72.3 °F /  22.4 °C 28.03 in /  949.1 hPa WNW 4.0 mph /  6.4 km/h 5.0 mph /  8 km/h 69 % 0.01 in /  0.25 mm
13:00 83.7 °F /  28.7 °C 72.4 °F /  22.4 °C 27.83 in /  942.3 hPa SSW 2.5 mph /  4 km/h 8.1 mph /  13 km/h 69 % 0.00 in /  0 mm
13:05 84.0 °F /  28.9 °C 72.3 °F /  22.4 °C 27.79 in /  941 hPa SSW 3.3 mph /  5.3 km/h 7.0 mph /  11.3 km/h 68 % 0.01 in /  0.25 mm
13:10 84.2 °F /  29 °C 72.5 °F /  22.5 °C 27.79 in /  941 hPa SSW 6.7 mph /  10.8 km/h 9.2 mph /  14.8 km/h 68 % 0.01 in /  0.25 mm
13:15 84.5 °F /  29.2 °C 71.9 °F /  22.2 °C 27.79 in /  941 hPa WSW 2.1 mph /  3.4 km/h 12.7 mph /  20.4 km/h 66 % 0.01 in /  0.25 mm
13:20 84.6 °F /  29.2 °C 71.1 °F /  21.7 °C 27.79 in /  941 hPa WSW 6.6 mph /  10.6 km/h 11.5 mph /  18.5 km/h 64 % 0.01 in /  0.25 mm
13:23 84.7 °F /  29.3 °C 72.1 °F /  22.3 °C 27.79 in /  941 hPa WSW 2.6 mph /  4.2 km/h 9.2 mph /  14.8 km/h 66 % 0.01 in /  0.25 mm
13:28 84.9 °F /  29.4 °C 71.8 °F /  22.1 °C 28.20 in /  954.9 hPa SW 1.4 mph /  2.3 km/h 6.9 mph /  11.1 km/h 65 % 0.01 in /  0.25 mm
13:33 85.2 °F /  29.6 °C 71.6 °F /  22 °C 28.12 in /  952.1 hPa WSW 3.5 mph /  5.6 km/h 10.4 mph /  16.7 km/h 64 % 0.01 in /  0.25 mm
13:38 85.3 °F /  29.6 °C 71.3 °F /  21.8 °C 28.12 in /  952.1 hPa SW 2.3 mph /  3.7 km/h 14.0 mph /  22.5 km/h 63 % 0.01 in /  0.25 mm
13:43 85.4 °F /  29.7 °C 71.4 °F /  21.9 °C 27.88 in /  944 hPa WSW 4.3 mph /  6.9 km/h 10.4 mph /  16.7 km/h 63 % 0.01 in /  0.25 mm
13:48 85.4 °F /  29.7 °C 70.9 °F /  21.6 °C 27.88 in /  944 hPa SW 7.6 mph /  12.2 km/h 15.0 mph /  24.1 km/h 62 % 0.01 in /  0.25 mm
13:53 85.4 °F /  29.7 °C 72.3 °F /  22.4 °C 27.88 in /  944 hPa WNW 4.4 mph /  7.1 km/h 9.2 mph /  14.8 km/h 65 % 0.01 in /  0.25 mm
13:58 85.7 °F /  29.8 °C 71.7 °F /  22.1 °C 27.88 in /  944 hPa West 1.3 mph /  2.1 km/h 3.5 mph /  5.6 km/h 63 % 0.01 in /  0.25 mm
14:03 85.9 °F /  29.9 °C 71.4 °F /  21.9 °C 27.88 in /  944 hPa WNW 5.7 mph /  9.2 km/h 11.5 mph /  18.5 km/h 62 % 0.00 in /  0 mm
14:08 86.0 °F /  30 °C 71.5 °F /  21.9 °C 27.88 in /  944 hPa NW 0.8 mph /  1.3 km/h 3.5 mph /  5.6 km/h 62 % 0.00 in /  0 mm
14:13 86.1 °F /  30.1 °C 70.1 °F /  21.2 °C 27.88 in /  944 hPa WSW 3.5 mph /  5.6 km/h 9.0 mph /  14.5 km/h 59 % 0.01 in /  0.25 mm
14:18 86.0 °F /  30 °C 69.5 °F /  20.8 °C 28.57 in /  967.4 hPa WSW 3.5 mph /  5.6 km/h 9.2 mph /  14.8 km/h 58 % 0.01 in /  0.25 mm
14:23 85.6 °F /  29.8 °C 69.6 °F /  20.9 °C 28.52 in /  965.7 hPa WSW 3.0 mph /  4.8 km/h 9.2 mph /  14.8 km/h 59 % 0.01 in /  0.25 mm
14:28 85.3 °F /  29.6 °C 68.8 °F /  20.4 °C 26.23 in /  888.1 hPa WNW 4.3 mph /  6.9 km/h 11.5 mph /  18.5 km/h 58 % 0.01 in /  0.25 mm
14:33 85.0 °F /  29.4 °C 69.6 °F /  20.9 °C 26.23 in /  888.1 hPa WNW 0.7 mph /  1.1 km/h 5.8 mph /  9.3 km/h 60 % 0.01 in /  0.25 mm
14:38 84.9 °F /  29.4 °C 69.5 °F /  20.8 °C 26.40 in /  893.9 hPa SSW 3.7 mph /  6 km/h 7.0 mph /  11.3 km/h 60 % 0.01 in /  0.25 mm
14:43 84.9 °F /  29.4 °C 69.9 °F /  21.1 °C 26.40 in /  893.9 hPa South 1.5 mph /  2.4 km/h 8.1 mph /  13 km/h 61 % 0.01 in /  0.25 mm
14:48 84.9 °F /  29.4 °C 69.5 °F /  20.8 °C 26.40 in /  893.9 hPa WSW 2.6 mph /  4.2 km/h 9.0 mph /  14.5 km/h 60 % 0.01 in /  0.25 mm
14:53 84.7 °F /  29.3 °C 69.8 °F /  21 °C 26.40 in /  893.9 hPa WSW 2.8 mph /  4.5 km/h 6.9 mph /  11.1 km/h 61 % 0.01 in /  0.25 mm
14:58 84.7 °F /  29.3 °C 69.8 °F /  21 °C 26.40 in /  893.9 hPa WSW 2.8 mph /  4.5 km/h 8.1 mph /  13 km/h 61 % 0.01 in /  0.25 mm
15:03 84.1 °F /  28.9 °C 69.2 °F /  20.7 °C 28.28 in /  957.6 hPa SW 2.2 mph /  3.5 km/h 8.1 mph /  13 km/h 61 % 0.01 in /  0.25 mm
15:08 83.9 °F /  28.8 °C 69.0 °F /  20.6 °C 28.20 in /  954.9 hPa WSW 0.9 mph /  1.4 km/h 10.4 mph /  16.7 km/h 61 % 0.01 in /  0.25 mm
15:14 83.9 °F /  28.8 °C 69.0 °F /  20.6 °C 28.07 in /  950.5 hPa West 1.4 mph /  2.3 km/h 11.5 mph /  18.5 km/h 61 % 0.02 in /  0.51 mm
15:19 83.8 °F /  28.8 °C 68.9 °F /  20.5 °C 28.07 in /  950.5 hPa SW 4.4 mph /  7.1 km/h 10.4 mph /  16.7 km/h 61 % 0.02 in /  0.51 mm
15:24 83.7 °F /  28.7 °C 69.3 °F /  20.7 °C 26.61 in /  901 hPa SW 0.9 mph /  1.4 km/h 5.8 mph /  9.3 km/h 62 % 0.01 in /  0.25 mm
15:29 83.5 °F /  28.6 °C 68.2 °F /  20.1 °C 26.61 in /  901 hPa WSW 2.0 mph /  3.2 km/h 8.1 mph /  13 km/h 60 % 0.01 in /  0.25 mm
15:34 83.3 °F /  28.5 °C 68.4 °F /  20.2 °C 26.61 in /  901 hPa WSW 0.1 mph /  0.2 km/h 3.5 mph /  5.6 km/h 61 % 0.01 in /  0.25 mm
15:39 83.2 °F /  28.4 °C 68.3 °F /  20.2 °C 26.61 in /  901 hPa WSW 0.8 mph /  1.3 km/h 3.5 mph /  5.6 km/h 61 % 0.01 in /  0.25 mm
15:44 83.1 °F /  28.4 °C 68.3 °F /  20.2 °C 26.61 in /  901 hPa West 0.5 mph /  0.8 km/h 8.1 mph /  13 km/h 61 % 0.01 in /  0.25 mm
15:49 82.9 °F /  28.3 °C 68.1 °F /  20.1 °C 26.61 in /  901 hPa West 0.4 mph /  0.6 km/h 2.3 mph /  3.7 km/h 61 % 0.01 in /  0.25 mm
15:50 82.9 °F /  28.3 °C 68.1 °F /  20.1 °C 26.61 in /  901 hPa West 0.4 mph /  0.6 km/h 2.3 mph /  3.7 km/h 61 % 0.01 in /  0.25 mm
15:54 82.9 °F /  28.3 °C 68.1 °F /  20.1 °C 26.61 in /  901 hPa West 0.4 mph /  0.6 km/h 2.3 mph /  3.7 km/h 61 % 0.01 in /  0.25 mm
15:59 82.9 °F /  28.3 °C 68.1 °F /  20.1 °C 26.61 in /  901 hPa West 0.4 mph /  0.6 km/h 2.3 mph /  3.7 km/h 61 % 0.01 in /  0.25 mm
16:11 83.1 °F /  28.4 °C 67.3 °F /  19.6 °C 22.75 in /  770.3 hPa WNW 1.2 mph /  1.9 km/h 13.0 mph /  20.9 km/h 59 % 0.01 in /  0.25 mm
16:16 82.5 °F /  28.1 °C 67.2 °F /  19.6 °C 22.75 in /  770.3 hPa NW 1.9 mph /  3.1 km/h 8.1 mph /  13 km/h 60 % 0.01 in /  0.25 mm
16:21 82.2 °F /  27.9 °C 67.9 °F /  19.9 °C 21.50 in /  728 hPa NW 2.7 mph /  4.3 km/h 8.1 mph /  13 km/h 62 % 0.02 in /  0.51 mm
16:26 81.9 °F /  27.7 °C 69.0 °F /  20.6 °C 21.21 in /  718.2 hPa West 1.0 mph /  1.6 km/h 3.5 mph /  5.6 km/h 65 % 0.02 in /  0.51 mm
16:31 81.6 °F /  27.6 °C 68.7 °F /  20.4 °C 25.93 in /  878 hPa West 2.3 mph /  3.7 km/h 4.0 mph /  6.4 km/h 65 % 0.02 in /  0.51 mm
16:36 81.1 °F /  27.3 °C 68.2 °F /  20.1 °C 25.82 in /  874.3 hPa WNW 1.0 mph /  1.6 km/h 4.0 mph /  6.4 km/h 65 % 0.01 in /  0.25 mm
16:41 80.7 °F /  27.1 °C 68.3 °F /  20.2 °C 24.25 in /  821.1 hPa West 1.0 mph /  1.6 km/h 4.6 mph /  7.4 km/h 66 % 0.01 in /  0.25 mm
16:46 80.3 °F /  26.8 °C 67.9 °F /  19.9 °C 23.74 in /  803.8 hPa SW 1.3 mph /  2.1 km/h 3.5 mph /  5.6 km/h 66 % 0.01 in /  0.25 mm
16:51 79.8 °F /  26.6 °C 67.9 °F /  19.9 °C 21.14 in /  715.8 hPa West 4.4 mph /  7.1 km/h 11.5 mph /  18.5 km/h 67 % 0.01 in /  0.25 mm
16:54 79.7 °F /  26.5 °C 68.2 °F /  20.1 °C 23.74 in /  803.8 hPa NW 0.8 mph /  1.3 km/h 3.5 mph /  5.6 km/h 68 % 0.01 in /  0.25 mm
16:56 79.7 °F /  26.5 °C 68.2 °F /  20.1 °C 23.74 in /  803.8 hPa NW 0.8 mph /  1.3 km/h 3.5 mph /  5.6 km/h 68 % 0.01 in /  0.25 mm
17:01 79.7 °F /  26.5 °C 68.2 °F /  20.1 °C 23.74 in /  803.8 hPa NW 0.8 mph /  1.3 km/h 3.5 mph /  5.6 km/h 68 % 0.01 in /  0.25 mm
17:36 77.1 °F /  25.1 °C 66.1 °F /  18.9 °C 24.61 in /  833.3 hPa West 0.4 mph /  0.6 km/h 6.0 mph /  9.7 km/h 69 % 0.01 in /  0.25 mm
17:41 76.8 °F /  24.9 °C 66.3 °F /  19.1 °C 24.41 in /  826.5 hPa WNW 5.0 mph /  8 km/h 10.0 mph /  16.1 km/h 70 % 0.00 in /  0 mm
17:46 76.5 °F /  24.7 °C 66.4 °F /  19.1 °C 24.41 in /  826.5 hPa West 1.0 mph /  1.6 km/h 9.0 mph /  14.5 km/h 71 % 0.00 in /  0 mm
17:51 76.4 °F /  24.7 °C 66.3 °F /  19.1 °C 24.41 in /  826.5 hPa NW 4.4 mph /  7.1 km/h 7.0 mph /  11.3 km/h 71 % 0.01 in /  0.25 mm
17:56 76.2 °F /  24.6 °C 66.1 °F /  18.9 °C 28.16 in /  953.5 hPa WSW 0.6 mph /  1 km/h 5.8 mph /  9.3 km/h 71 % 0.02 in /  0.51 mm
18:01 76.0 °F /  24.4 °C 65.9 °F /  18.8 °C 27.97 in /  947.1 hPa NW 3.0 mph /  4.8 km/h 8.1 mph /  13 km/h 71 % 0.01 in /  0.25 mm
18:06 75.9 °F /  24.4 °C 66.2 °F /  19 °C 27.91 in /  945 hPa WNW 0.4 mph /  0.6 km/h 2.3 mph /  3.7 km/h 72 % 0.01 in /  0.25 mm
18:11 75.9 °F /  24.4 °C 66.2 °F /  19 °C 27.91 in /  945 hPa West 2.9 mph /  4.7 km/h 3.5 mph /  5.6 km/h 72 % 0.01 in /  0.25 mm
18:14 75.8 °F /  24.3 °C 66.5 °F /  19.2 °C 27.91 in /  945 hPa WNW 0.5 mph /  0.8 km/h 3.5 mph /  5.6 km/h 73 % 0.01 in /  0.25 mm
18:16 75.8 °F /  24.3 °C 66.5 °F /  19.2 °C 27.91 in /  945 hPa WNW 0.5 mph /  0.8 km/h 3.5 mph /  5.6 km/h 73 % 0.01 in /  0.25 mm
18:21 75.8 °F /  24.3 °C 66.5 °F /  19.2 °C 27.91 in /  945 hPa WNW 0.5 mph /  0.8 km/h 3.5 mph /  5.6 km/h 73 % 0.01 in /  0.25 mm
18:38 75.8 °F /  24.3 °C 66.5 °F /  19.2 °C 27.61 in /  934.9 hPa West 3.8 mph /  6.1 km/h 3.8 mph /  6.1 km/h 73 % 0.01 in /  0.25 mm
18:43 75.9 °F /  24.4 °C 66.6 °F /  19.2 °C 27.61 in /  934.9 hPa West 0.6 mph /  1 km/h 5.0 mph /  8 km/h 73 % 0.01 in /  0.25 mm
18:48 75.9 °F /  24.4 °C 66.6 °F /  19.2 °C 27.61 in /  934.9 hPa Calm   2.3 mph /  3.7 km/h 73 % 0.01 in /  0.25 mm
18:53 75.9 °F /  24.4 °C 66.6 °F /  19.2 °C 27.61 in /  934.9 hPa WSW 0.2 mph /  0.3 km/h 1.2 mph /  1.9 km/h 73 % 0.01 in /  0.25 mm
18:58 75.9 °F /  24.4 °C 66.2 °F /  19 °C 28.30 in /  958.2 hPa West 0.4 mph /  0.6 km/h 2.3 mph /  3.7 km/h 72 % 0.01 in /  0.25 mm
19:03 75.8 °F /  24.3 °C 66.1 °F /  18.9 °C 28.22 in /  955.5 hPa West 0.4 mph /  0.6 km/h 2.3 mph /  3.7 km/h 72 % 0.01 in /  0.25 mm
19:08 75.8 °F /  24.3 °C 66.1 °F /  18.9 °C 28.05 in /  949.8 hPa West 0.4 mph /  0.6 km/h 3.0 mph /  4.8 km/h 72 % 0.01 in /  0.25 mm
19:13 75.6 °F /  24.2 °C 65.9 °F /  18.8 °C 26.18 in /  886.5 hPa WNW 1.7 mph /  2.7 km/h 5.8 mph /  9.3 km/h 72 % 0.01 in /  0.25 mm
19:18 75.3 °F /  24.1 °C 65.2 °F /  18.4 °C 26.18 in /  886.5 hPa WNW 2.0 mph /  3.2 km/h 8.0 mph /  12.9 km/h 71 % 0.00 in /  0 mm
19:23 75.1 °F /  23.9 °C 65.1 °F /  18.4 °C 24.01 in /  813 hPa West 1.0 mph /  1.6 km/h 4.6 mph /  7.4 km/h 71 % 0.00 in /  0 mm
19:28 74.9 °F /  23.8 °C 65.3 °F /  18.5 °C 23.60 in /  799.1 hPa WNW 0.9 mph /  1.4 km/h 4.0 mph /  6.4 km/h 72 % 0.00 in /  0 mm
19:33 74.7 °F /  23.7 °C 65.1 °F /  18.4 °C 23.17 in /  784.5 hPa WNW 1.3 mph /  2.1 km/h 2.3 mph /  3.7 km/h 72 % 0.00 in /  0 mm
19:38 74.6 °F /  23.7 °C 64.6 °F /  18.1 °C 22.26 in /  753.7 hPa WNW 2.6 mph /  4.2 km/h 5.8 mph /  9.3 km/h 71 % 0.00 in /  0 mm
19:43 74.4 °F /  23.6 °C 64.8 °F /  18.2 °C 27.43 in /  928.8 hPa Calm     72 % 0.00 in /  0 mm
19:48 74.2 °F /  23.4 °C 64.6 °F /  18.1 °C 27.43 in /  928.8 hPa West 1.6 mph /  2.6 km/h 3.5 mph /  5.6 km/h 72 % 0.00 in /  0 mm
19:53 74.0 °F /  23.3 °C 64.4 °F /  18 °C 27.43 in /  928.8 hPa Calm   3.5 mph /  5.6 km/h 72 % 0.00 in /  0 mm
19:58 73.9 °F /  23.3 °C 64.3 °F /  17.9 °C 27.43 in /  928.8 hPa WNW 0.7 mph /  1.1 km/h 3.5 mph /  5.6 km/h 72 % 0.00 in /  0 mm
20:03 73.6 °F /  23.1 °C 64.0 °F /  17.8 °C 27.43 in /  928.8 hPa WSW 0.8 mph /  1.3 km/h 3.5 mph /  5.6 km/h 72 % 0.00 in /  0 mm
20:08 73.4 °F /  23 °C 63.8 °F /  17.7 °C 22.12 in /  749 hPa West 3.5 mph /  5.6 km/h 11.5 mph /  18.5 km/h 72 % 0.00 in /  0 mm
20:13 73.2 °F /  22.9 °C 64.0 °F /  17.8 °C 22.12 in /  749 hPa SW 0.4 mph /  0.6 km/h 3.5 mph /  5.6 km/h 73 % 0.01 in /  0.25 mm
20:18 73.1 °F /  22.8 °C 63.9 °F /  17.7 °C 21.26 in /  719.9 hPa West 1.6 mph /  2.6 km/h 3.5 mph /  5.6 km/h 73 % 0.01 in /  0.25 mm
20:24 72.9 °F /  22.7 °C 63.7 °F /  17.6 °C 21.26 in /  719.9 hPa WSW 0.6 mph /  1 km/h 1.2 mph /  1.9 km/h 73 % 0.01 in /  0.25 mm
20:29 72.6 °F /  22.6 °C 63.4 °F /  17.4 °C 28.11 in /  951.8 hPa WSW 1.7 mph /  2.7 km/h 6.9 mph /  11.1 km/h 73 % 0.01 in /  0.25 mm
20:34 72.4 °F /  22.4 °C 63.3 °F /  17.4 °C 27.91 in /  945 hPa West 0.3 mph /  0.5 km/h 4.6 mph /  7.4 km/h 73 % 0.01 in /  0.25 mm
20:39 72.2 °F /  22.3 °C 63.1 °F /  17.3 °C 27.91 in /  945 hPa West 0.1 mph /  0.2 km/h 1.2 mph /  1.9 km/h 73 % 0.01 in /  0.25 mm
20:44 72.0 °F /  22.2 °C 63.3 °F /  17.4 °C 27.91 in /  945 hPa Calm     74 % 0.01 in /  0.25 mm
20:49 71.8 °F /  22.1 °C 63.1 °F /  17.3 °C 27.91 in /  945 hPa WNW 0.9 mph /  1.4 km/h 3.5 mph /  5.6 km/h 74 % 0.01 in /  0.25 mm
20:54 71.8 °F /  22.1 °C 63.1 °F /  17.3 °C 27.91 in /  945 hPa WNW 0.9 mph /  1.4 km/h 3.5 mph /  5.6 km/h 74 % 0.01 in /  0.25 mm
20:59 71.8 °F /  22.1 °C 63.1 °F /  17.3 °C 27.91 in /  945 hPa WNW 0.9 mph /  1.4 km/h 3.5 mph /  5.6 km/h 74 % 0.01 in /  0.25 mm
21:42 69.8 °F /  21 °C 61.5 °F /  16.4 °C 25.48 in /  862.8 hPa Calm   3.5 mph /  5.6 km/h 75 % 0.01 in /  0.25 mm
21:47 69.7 °F /  20.9 °C 61.4 °F /  16.3 °C 25.41 in /  860.4 hPa West 0.6 mph /  1 km/h 2.3 mph /  3.7 km/h 75 % 0.01 in /  0.25 mm
21:52 69.5 °F /  20.8 °C 61.6 °F /  16.4 °C 25.41 in /  860.4 hPa WNW 0.7 mph /  1.1 km/h 3.5 mph /  5.6 km/h 76 % 0.01 in /  0.25 mm
21:57 69.4 °F /  20.8 °C 61.5 °F /  16.4 °C 27.35 in /  926.1 hPa WNW 1.9 mph /  3.1 km/h 6.9 mph /  11.1 km/h 76 % 0.01 in /  0.25 mm
22:02 69.2 °F /  20.7 °C 60.9 °F /  16.1 °C 27.28 in /  923.7 hPa WNW 2.5 mph /  4 km/h 5.8 mph /  9.3 km/h 75 % 0.01 in /  0.25 mm
22:07 69.0 °F /  20.6 °C 60.7 °F /  15.9 °C 27.28 in /  923.7 hPa WNW 0.6 mph /  1 km/h 2.3 mph /  3.7 km/h 75 % 0.00 in /  0 mm
22:12 68.8 °F /  20.4 °C 60.6 °F /  15.9 °C 27.28 in /  923.7 hPa WNW 0.1 mph /  0.2 km/h 3.5 mph /  5.6 km/h 75 % 0.00 in /  0 mm
22:17 68.7 °F /  20.4 °C 60.8 °F /  16 °C 27.28 in /  923.7 hPa WNW 0.9 mph /  1.4 km/h 5.0 mph /  8 km/h 76 % 0.00 in /  0 mm
22:22 68.5 °F /  20.3 °C 60.6 °F /  15.9 °C 27.28 in /  923.7 hPa WNW 1.2 mph /  1.9 km/h 5.8 mph /  9.3 km/h 76 % 0.00 in /  0 mm
22:27 68.4 °F /  20.2 °C 60.5 °F /  15.8 °C 28.80 in /  975.2 hPa WNW 0.6 mph /  1 km/h 2.3 mph /  3.7 km/h 76 % 0.00 in /  0 mm
22:32 68.2 °F /  20.1 °C 60.0 °F /  15.6 °C 28.85 in /  976.9 hPa Calm     75 % 0.00 in /  0 mm
22:37 67.9 °F /  19.9 °C 59.7 °F /  15.4 °C 28.72 in /  972.5 hPa WNW 0.6 mph /  1 km/h 4.0 mph /  6.4 km/h 75 % 0.01 in /  0.25 mm
22:42 67.8 °F /  19.9 °C 59.6 °F /  15.3 °C 28.70 in /  971.8 hPa NW 0.2 mph /  0.3 km/h 1.0 mph /  1.6 km/h 75 % 0.01 in /  0.25 mm
22:47 67.6 °F /  19.8 °C 59.4 °F /  15.2 °C 28.66 in /  970.4 hPa WNW 2.3 mph /  3.7 km/h 8.1 mph /  13 km/h 75 % 0.01 in /  0.25 mm
22:52 67.4 °F /  19.7 °C 59.6 °F /  15.3 °C 28.53 in /  966 hPa North 1.6 mph /  2.6 km/h 5.8 mph /  9.3 km/h 76 % 0.01 in /  0.25 mm
22:57 67.1 °F /  19.5 °C 58.9 °F /  14.9 °C 28.50 in /  965 hPa NNE 2.4 mph /  3.9 km/h 6.0 mph /  9.7 km/h 75 % 0.01 in /  0.25 mm
23:02 66.8 °F /  19.3 °C 58.6 °F /  14.8 °C 26.73 in /  905.1 hPa NNE 0.1 mph /  0.2 km/h 5.8 mph /  9.3 km/h 75 % 0.01 in /  0.25 mm
23:07 66.5 °F /  19.2 °C 58.3 °F /  14.6 °C 26.44 in /  895.3 hPa Calm   3.5 mph /  5.6 km/h 75 % 0.01 in /  0.25 mm
23:12 66.3 °F /  19.1 °C 58.1 °F /  14.5 °C 26.33 in /  891.5 hPa NNW 1.2 mph /  1.9 km/h 6.9 mph /  11.1 km/h 75 % 0.01 in /  0.25 mm
23:17 66.0 °F /  18.9 °C 58.2 °F /  14.6 °C 26.33 in /  891.5 hPa NNE 1.3 mph /  2.1 km/h 3.5 mph /  5.6 km/h 76 % 0.01 in /  0.25 mm
23:22 65.6 °F /  18.7 °C 57.8 °F /  14.3 °C 26.33 in /  891.5 hPa NNW 1.1 mph /  1.8 km/h 3.0 mph /  4.8 km/h 76 % 0.01 in /  0.25 mm
Crab Meadow Weather
Compliments of Weather Underground - 2.75 mb

Script developed by  Jim McMurry - jmcmurry@mwt.net Adapted for the template by  Wim van der Kuil - Leuven-Template.eu

Weather Terms: Winter Weather Advisory - Hazardous winter weather conditions are occurring, imminent or likely. Conditions will cause a significant inconvenience and if caution is not exercised, will result in a potential threat to life and/or property. The generic term, winter weather advisory, is used for a combination of two or more of the following events; snow, freezing rain or drizzle, sleet, blowing snow.